Time;durP1;ratioP1;P1;durP2;ratioP2;P2;SDS_P1;SDS_P2;PMS_P1;PMS_P2;Temp;Humidity;BMP_temperature;BMP_pressure;BME280_temperature;BME280_humidity;BME280_pressure;Samples;Min_cycle;Max_cycle;Signal;HPM_P1;HPM_P2
2022/05/13 00:01:17;;;;;;;;;1.00;1.00;;;;;33.03;19.03;101666.94;5076099;28;45284;-78
2022/05/13 00:03:42;;;;;;;;;1.00;1.00;;;;;33.04;19.48;101675.06;5057834;28;45530;-78
2022/05/13 00:06:08;;;;;;;;;1.67;1.00;;;;;32.90;19.38;101655.78;5075538;28;45458;-78
2022/05/13 00:08:34;;;;;;;;;0.67;0.67;;;;;33.12;18.90;101703.00;5076153;28;45373;-78
2022/05/13 00:11:02;;;;;;;;;2.00;2.00;;;;;33.18;19.40;101705.34;5075908;28;45282;-78
2022/05/13 00:13:29;;;;;;;;;2.00;1.00;;;;;33.03;19.12;101673.31;5076015;28;45430;-78
2022/05/13 00:15:55;;;;;;;;;1.00;1.00;;;;;33.00;19.28;101665.25;5057700;28;47027;-78
2022/05/13 00:18:20;;;;;;;;;4.33;1.67;;;;;33.13;19.59;101685.50;5057334;28;45481;-78
2022/05/13 00:20:45;;;;;;;;;1.00;1.00;;;;;33.01;19.50;101667.03;5075723;28;45447;-78
2022/05/13 00:23:11;;;;;;;;;2.00;1.00;;;;;33.23;19.21;101696.84;5075766;28;45404;-78
2022/05/13 00:25:37;;;;;;;;;3.00;1.00;;;;;33.03;19.08;101661.44;5075732;28;45478;-78
2022/05/13 00:28:04;;;;;;;;;2.00;2.00;;;;;33.24;19.37;101700.50;5057633;28;45245;-78
2022/05/13 00:30:33;;;;;;;;;4.00;1.00;;;;;33.05;19.49;101678.69;5075745;28;45505;-78
2022/05/13 00:33:00;;;;;;;;;0.67;0.67;;;;;33.01;19.00;101689.03;5075926;28;45434;-78
2022/05/13 00:35:26;;;;;;;;;1.00;1.00;;;;;32.83;19.18;101655.28;5074972;28;46136;-78
2022/05/13 00:37:51;;;;;;;;;1.00;1.00;;;;;32.91;18.79;101676.78;5075683;28;45546;-78
2022/05/13 00:40:23;;;;;;;;;2.00;2.00;;;;;32.97;18.96;101695.69;5075337;28;45323;-78
2022/05/13 00:42:49;;;;;;;;;1.33;1.00;;;;;32.95;18.82;101697.63;5075879;28;45371;-78
2022/05/13 00:45:17;;;;;;;;;3.33;2.00;;;;;32.96;19.45;101692.03;5075195;28;46504;-78
2022/05/13 00:47:44;;;;;;;;;3.00;0.33;;;;;32.99;19.35;101696.47;5075547;28;45340;-78
2022/05/13 00:50:12;;;;;;;;;1.67;1.67;;;;;32.95;19.31;101692.13;5057170;28;45424;-78
2022/05/13 00:52:42;;;;;;;;;2.00;1.00;;;;;32.66;18.93;101654.41;5075430;28;45480;-78
2022/05/13 00:55:11;;;;;;;;;1.00;1.00;;;;;32.73;19.14;101684.28;5075352;28;46516;-78
2022/05/13 00:57:38;;;;;;;;;1.00;1.00;;;;;32.74;19.28;101684.22;5075154;28;45406;-78
2022/05/13 01:00:08;;;;;;;;;1.00;1.00;;;;;32.74;18.53;101700.72;5075599;28;45529;-78
2022/05/13 01:02:35;;;;;;;;;1.00;1.00;;;;;32.71;18.75;101695.38;5075369;28;45842;-78
2022/05/13 01:05:00;;;;;;;;;2.00;1.00;;;;;32.34;18.81;101637.09;5074820;28;45552;-78
2022/05/13 01:07:27;;;;;;;;;1.00;1.00;;;;;32.22;19.01;101651.53;5075085;28;45470;-78
2022/05/13 01:09:57;;;;;;;;;0.67;0.67;;;;;32.53;18.83;101699.19;5075480;28;45501;-78
2022/05/13 01:12:29;;;;;;;;;0.67;0.67;;;;;32.44;18.75;101675.91;5074937;28;45237;-78
2022/05/13 01:15:00;;;;;;;;;1.00;1.00;;;;;32.47;18.64;101672.97;5075200;28;46235;-78
2022/05/13 01:20:18;;;;;;;;;2.00;0.33;;;;;32.54;18.84;101689.97;5078381;28;45376;-78
2022/05/13 01:22:47;;;;;;;;;1.00;1.00;;;;;32.43;18.59;101676.88;5079009;28;45375;-79
2022/05/13 01:25:17;;;;;;;;;1.00;1.00;;;;;32.56;18.71;101696.25;5078345;28;46416;-78
2022/05/13 01:27:44;;;;;;;;;1.33;1.00;;;;;32.22;18.75;101644.22;5078515;28;45482;-78
2022/05/13 01:30:14;;;;;;;;;1.00;1.00;;;;;32.36;17.98;101700.19;5078596;28;45533;-78
2022/05/13 01:32:40;;;;;;;;;0.00;0.00;;;;;32.16;17.93;101688.47;5060208;28;45847;-78
2022/05/13 01:35:06;;;;;;;;;0.25;0.25;;;;;31.85;18.21;101661.88;5059900;28;46045;-78
2022/05/13 01:37:33;;;;;;;;;1.00;1.00;;;;;31.69;18.26;101664.56;5078306;28;45438;-78
2022/05/13 01:39:58;;;;;;;;;2.67;1.33;;;;;31.57;17.87;101677.09;5078367;28;45414;-78
2022/05/13 01:42:24;;;;;;;;;1.67;1.00;;;;;31.78;18.44;101716.19;5078256;28;45367;-78
2022/05/13 01:44:49;;;;;;;;;1.00;1.00;;;;;31.65;18.29;101680.34;5078420;28;46355;-78
2022/05/13 01:47:14;;;;;;;;;1.33;1.33;;;;;31.78;18.43;101695.13;5059784;28;45482;-78
2022/05/13 01:49:40;;;;;;;;;1.00;1.00;;;;;31.78;18.41;101681.41;5077956;28;45307;-78
2022/05/13 01:52:05;;;;;;;;;1.00;1.00;;;;;31.89;18.51;101699.16;5078458;28;45425;-78
2022/05/13 01:54:31;;;;;;;;;1.33;1.00;;;;;31.77;18.13;101706.19;5077286;28;46961;-78
2022/05/13 01:56:56;;;;;;;;;0.00;0.00;;;;;31.70;18.59;101680.06;5078110;28;45422;-78
2022/05/13 01:59:21;;;;;;;;;1.00;1.00;;;;;31.39;18.24;101644.25;5077941;28;45371;-78
2022/05/13 02:01:46;;;;;;;;;2.00;1.00;;;;;31.60;18.55;101682.44;5078086;28;45295;-78
2022/05/13 02:04:12;;;;;;;;;2.33;1.00;;;;;31.58;18.97;101678.91;5077693;28;45490;-78
2022/05/13 02:06:37;;;;;;;;;1.00;1.00;;;;;31.58;18.90;101684.41;5077968;28;45502;-78
2022/05/13 02:09:03;;;;;;;;;1.00;1.00;;;;;31.33;19.00;101654.66;5078029;28;45386;-78
2022/05/13 02:11:31;;;;;;;;;0.67;0.67;;;;;31.47;19.18;101694.03;5077321;28;45406;-78
2022/05/13 02:13:57;;;;;;;;;0.00;0.00;;;;;31.17;18.65;101640.88;5077850;28;46069;-78
2022/05/13 02:16:22;;;;;;;;;1.67;1.00;;;;;31.61;18.95;101704.28;5077430;28;45431;-79
2022/05/13 02:18:48;;;;;;;;;2.00;1.00;;;;;31.59;18.46;101695.28;5077799;28;45522;-79
2022/05/13 02:21:14;;;;;;;;;3.00;1.00;;;;;31.55;19.25;101711.97;5077738;28;45498;-79
2022/05/13 02:23:40;;;;;;;;;1.00;0.00;;;;;31.43;18.89;101692.44;5077629;28;45477;-78
2022/05/13 02:26:09;;;;;;;;;1.33;0.00;;;;;31.39;19.29;101668.91;5077798;28;45498;-78
2022/05/13 02:28:36;;;;;;;;;1.33;1.00;;;;;31.53;19.34;101690.06;5077331;28;45241;-78
2022/05/13 02:31:01;;;;;;;;;1.67;1.67;;;;;31.54;19.00;101712.94;5058587;28;45494;-78
2022/05/13 02:33:28;;;;;;;;;1.00;1.00;;;;;31.33;18.66;101691.16;5059101;28;47402;-78
2022/05/13 02:35:54;;;;;;;;;1.00;1.00;;;;;31.47;19.32;101715.97;5077493;28;45322;-78
2022/05/13 02:38:19;;;;;;;;;0.67;0.67;;;;;31.25;18.90;101663.28;5077490;28;45228;-78
2022/05/13 02:41:27;;;;;;;;;1.00;1.00;;;;;31.39;18.79;101684.47;5077236;28;45362;-79
2022/05/13 02:43:34;;;;;;;;;1.67;0.67;;;;;31.53;19.34;101703.78;5063568;28;46146;-79
2022/05/13 02:45:59;;;;;;;;;0.00;0.00;;;;;31.32;18.80;101667.44;5077022;28;45399;-79
2022/05/13 02:48:24;;;;;;;;;0.33;0.33;;;;;31.38;19.18;101693.66;5077244;28;45295;-78
2022/05/13 02:50:50;;;;;;;;;2.00;0.67;;;;;31.60;19.34;101713.53;5077400;28;45227;-78
2022/05/13 02:53:15;;;;;;;;;1.00;1.00;;;;;31.51;18.96;101696.66;5077096;28;45419;-78
2022/05/13 02:55:41;;;;;;;;;0.00;0.00;;;;;31.60;19.08;101704.38;5077374;28;45341;-78
2022/05/13 02:58:06;;;;;;;;;2.00;1.00;;;;;31.23;19.31;101663.34;5077504;28;45341;-78
2022/05/13 03:00:33;;;;;;;;;0.00;0.00;;;;;31.41;19.56;101694.38;5076723;28;45516;-78
2022/05/13 03:02:59;;;;;;;;;0.00;0.00;;;;;31.31;19.06;101668.44;5076972;28;45414;-78
2022/05/13 03:05:25;;;;;;;;;1.67;1.00;;;;;31.51;19.14;101685.66;5077076;28;45614;-78
2022/05/13 03:07:51;;;;;;;;;1.00;1.00;;;;;31.21;19.30;101642.47;5077160;28;45609;-78
2022/05/13 03:10:17;;;;;;;;;1.00;1.00;;;;;31.53;19.03;101689.19;5076898;28;45665;-78
2022/05/13 03:12:43;;;;;;;;;0.33;0.33;;;;;31.68;18.99;101709.47;5076580;28;46600;-78
2022/05/13 03:15:10;;;;;;;;;0.33;0.33;;;;;31.47;19.75;101663.00;5076458;28;45548;-78
2022/05/13 03:17:36;;;;;;;;;1.00;1.00;;;;;31.60;19.05;101685.19;5076442;28;45545;-78
2022/05/13 03:20:06;;;;;;;;;0.00;0.00;;;;;31.60;19.29;101685.19;5058875;28;45382;-78
2022/05/13 03:22:32;;;;;;;;;1.00;1.00;;;;;31.50;19.51;101671.06;5058280;28;47302;-78
2022/05/13 03:24:59;;;;;;;;;1.00;1.00;;;;;31.70;19.36;101702.94;5058578;28;45443;-79
2022/05/13 03:27:24;;;;;;;;;1.33;1.00;;;;;31.56;19.74;101680.81;5076772;28;45386;-78
2022/05/13 03:29:49;;;;;;;;;2.33;1.00;;;;;31.67;19.81;101700.31;5076277;28;45371;-78
2022/05/13 03:32:15;;;;;;;;;1.00;1.00;;;;;31.64;19.50;101695.00;5076660;28;46315;-78
2022/05/13 03:34:40;;;;;;;;;1.33;1.33;;;;;31.56;20.04;101683.53;5076365;28;45271;-78
2022/05/13 03:37:05;;;;;;;;;2.33;1.00;;;;;31.43;19.64;101662.25;5076704;28;45366;-78
2022/05/13 03:39:31;;;;;;;;;1.00;1.00;;;;;31.60;20.05;101683.34;5075695;28;45445;-78
2022/05/13 03:41:56;;;;;;;;;1.00;1.00;;;;;31.19;19.71;101656.25;5076369;28;46511;-78
2022/05/13 03:44:22;;;;;;;;;0.33;0.33;;;;;31.46;19.74;101700.53;5076052;28;45296;-78
2022/05/13 03:46:47;;;;;;;;;1.67;1.67;;;;;31.20;20.31;101668.13;5076586;28;45347;-78
2022/05/13 03:49:13;;;;;;;;;1.00;1.00;;;;;31.40;20.35;101698.09;5076488;28;45498;-78
2022/05/13 03:51:38;;;;;;;;;2.00;2.00;;;;;31.21;20.23;101654.34;5076023;28;45447;-78
2022/05/13 03:54:04;;;;;;;;;2.00;2.00;;;;;31.48;20.17;101695.81;5076421;28;45343;-78
2022/05/13 03:56:30;;;;;;;;;3.00;2.00;;;;;31.47;20.26;101683.06;5058039;28;45383;-78
2022/05/13 03:58:56;;;;;;;;;2.33;2.33;;;;;31.50;19.93;101675.66;5075955;28;45402;-78
2022/05/13 04:01:21;;;;;;;;;5.33;3.33;;;;;31.61;20.06;101689.69;5076008;28;45445;-78
2022/05/13 04:03:47;;;;;;;;;3.67;3.67;;;;;31.79;19.97;101704.25;5075974;28;45374;-78
2022/05/13 04:08:58;;;;;;;;;4.00;3.00;;;;;31.75;19.91;101700.78;5076274;28;45402;-78
2022/05/13 04:11:32;;;;;;;;;2.00;2.00;;;;;31.92;20.14;101718.19;5075756;28;46400;-78
2022/05/13 04:16:43;;;;;;;;;3.00;3.00;;;;;31.45;20.15;101696.00;5035552;28;45443;-78
2022/05/13 04:19:10;;;;;;;;;7.00;4.33;;;;;31.48;20.67;101720.50;5031593;28;45393;-78
2022/05/13 04:21:38;;;;;;;;;3.00;3.00;;;;;31.42;20.26;101718.09;5048671;28;46349;-78
2022/05/13 04:24:06;;;;;;;;;4.00;3.00;;;;;31.45;20.29;101720.69;5036110;28;45488;-80
2022/05/13 04:26:32;;;;;;;;;4.00;3.67;;;;;31.46;20.35;101718.81;5035267;28;45532;-80
2022/05/13 04:28:59;;;;;;;;;5.33;3.00;;;;;31.45;21.01;101708.84;5029056;28;45462;-79
2022/05/13 04:31:30;;;;;;;;;3.00;3.00;;;;;31.47;20.41;101726.94;5026569;28;47352;-79
2022/05/13 04:33:56;;;;;;;;;6.00;5.00;;;;;31.55;20.45;101728.41;5053576;28;46477;-82
2022/05/13 04:36:23;;;;;;;;;1.00;1.00;;;;;31.48;20.83;101723.25;5053769;28;45460;-80
2022/05/13 04:38:49;;;;;;;;;4.67;3.00;;;;;31.51;20.96;101733.16;5054087;28;45446;-81
2022/05/13 04:44:01;;;;;;;;;3.00;3.00;;;;;31.48;21.16;101722.38;5027289;28;45580;-78
2022/05/13 04:46:27;;;;;;;;;4.00;4.00;;;;;31.75;21.36;101730.97;5013102;28;45573;-77
2022/05/13 04:48:53;;;;;;;;;7.00;3.00;;;;;31.48;21.19;101703.19;4996161;28;45649;-77
2022/05/13 04:51:20;;;;;;;;;2.00;2.00;;;;;31.65;21.37;101740.69;5012986;28;45976;-77
2022/05/13 04:53:50;;;;;;;;;3.33;3.00;;;;;31.42;21.05;101706.22;4999243;28;45509;-78
2022/05/13 04:56:16;;;;;;;;;4.00;2.33;;;;;31.53;21.21;101741.31;5016157;28;45480;-78
2022/05/13 04:58:42;;;;;;;;;2.00;2.00;;;;;31.41;21.08;101693.50;4999908;28;45591;-80
2022/05/13 05:01:09;;;;;;;;;2.33;2.33;;;;;31.70;20.73;101705.66;4999800;28;46339;-83
2022/05/13 05:03:35;;;;;;;;;7.00;7.00;;;;;31.47;21.23;101674.84;4998952;28;45422;-83
2022/05/13 05:06:02;;;;;;;;;7.33;6.33;;;;;31.90;21.40;101740.22;5016062;28;45369;-82
2022/05/13 05:08:29;;;;;;;;;4.67;3.00;;;;;31.90;20.82;101747.56;5016112;28;45505;-82
2022/05/13 05:10:55;;;;;;;;;5.00;3.00;;;;;31.84;20.87;101709.50;5015409;28;45869;-83
2022/05/13 05:13:35;;;;;;;;;4.67;3.00;;;;;31.76;20.68;101715.41;5016191;28;45335;-82
2022/05/13 05:16:02;;;;;;;;;5.00;3.00;;;;;32.14;21.28;101754.47;4998807;28;45730;-82
2022/05/13 05:18:28;;;;;;;;;2.00;2.00;;;;;32.05;21.32;101751.31;5015824;28;45392;-82
2022/05/13 05:20:54;;;;;;;;;2.00;2.00;;;;;31.90;21.24;101729.25;5024871;28;45390;-83
2022/05/13 05:23:22;;;;;;;;;2.00;2.00;;;;;32.11;21.51;101765.59;5037998;28;45319;-83
2022/05/13 05:25:48;;;;;;;;;2.67;2.67;;;;;32.10;21.11;101773.91;5055703;28;45769;-83
2022/05/13 05:28:14;;;;;;;;;1.00;1.00;;;;;31.92;20.80;101732.78;5058141;28;45566;-83
2022/05/13 05:30:40;;;;;;;;;5.00;3.67;;;;;32.05;20.88;101759.53;5039031;28;46249;-83
2022/05/13 05:33:07;;;;;;;;;4.00;2.00;;;;;32.20;21.65;101771.56;5020387;28;45512;-84
2022/05/13 05:35:33;;;;;;;;;3.00;1.00;;;;;31.81;20.88;101696.81;5052415;28;45470;-84
2022/05/13 05:37:59;;;;;;;;;3.33;1.67;;;;;32.17;20.88;101777.22;5057233;28;45457;-83
2022/05/13 05:40:24;;;;;;;;;3.00;1.67;;;;;32.04;20.71;101758.66;5043936;28;46078;-84
2022/05/13 05:42:50;;;;;;;;;4.00;3.00;;;;;31.97;21.07;101746.25;5037852;28;45436;-86
2022/05/13 05:45:18;;;;;;;;;3.00;2.00;;;;;31.87;20.84;101723.03;5041606;28;45535;-82
2022/05/13 05:47:44;;;;;;;;;2.00;2.00;;;;;31.81;21.33;101722.41;5019750;28;45397;-84
2022/05/13 05:50:13;;;;;;;;;2.00;2.00;;;;;32.06;21.26;101759.47;5048280;28;48292;-88
2022/05/13 05:52:38;;;;;;;;;2.33;2.00;;;;;32.19;20.96;101772.53;5054664;28;45514;-85
2022/05/13 05:58:03;;;;;;;;;4.00;3.00;;;;;32.26;20.76;101793.19;5053419;28;45312;-72
2022/05/13 06:00:30;;;;;;;;;3.67;3.00;;;;;32.04;20.68;101786.13;5049294;28;46199;-72
2022/05/13 06:02:56;;;;;;;;;4.00;3.00;;;;;32.00;20.40;101779.03;5047059;28;45371;-72
2022/05/13 06:05:23;;;;;;;;;4.00;2.33;;;;;32.22;21.04;101800.72;5048741;28;45378;-72
2022/05/13 06:07:50;;;;;;;;;3.00;3.00;;;;;32.30;20.48;101797.53;5049123;28;45320;-72
2022/05/13 06:10:16;;;;;;;;;4.33;2.67;;;;;32.22;20.48;101786.09;5047325;28;46224;-72
2022/05/13 06:12:43;;;;;;;;;4.67;3.00;;;;;32.29;20.58;101787.50;5048947;28;45392;-72
2022/05/13 06:15:09;;;;;;;;;3.67;2.33;;;;;32.41;20.33;101794.19;5053236;28;45446;-72
2022/05/13 06:17:35;;;;;;;;;3.00;3.00;;;;;32.32;20.29;101803.81;5037697;28;45524;-72
2022/05/13 06:20:05;;;;;;;;;3.00;3.00;;;;;32.27;20.25;101812.31;5056224;28;45487;-72
2022/05/13 06:22:30;;;;;;;;;3.67;3.00;;;;;32.11;19.96;101815.00;5056764;28;45497;-72
2022/05/13 06:24:55;;;;;;;;;3.00;3.00;;;;;32.05;20.55;101804.34;5056324;28;45435;-72
2022/05/13 06:27:21;;;;;;;;;2.00;2.00;;;;;31.68;20.16;101806.34;5056890;28;45528;-72
2022/05/13 06:29:47;;;;;;;;;3.00;3.00;;;;;31.90;19.99;101828.03;5056656;28;45411;-73
2022/05/13 06:32:12;;;;;;;;;1.67;1.00;;;;;32.08;20.03;101828.91;5056276;28;45394;-71
2022/05/13 06:34:38;;;;;;;;;3.00;1.00;;;;;31.87;20.07;101824.56;5056841;28;46182;-72
2022/05/13 06:37:03;;;;;;;;;2.00;2.00;;;;;31.64;20.06;101822.09;5038000;28;46403;-72
2022/05/13 06:39:29;;;;;;;;;2.00;2.00;;;;;31.78;20.45;101831.44;5037061;28;47573;-72
2022/05/13 06:41:54;;;;;;;;;4.00;1.33;;;;;31.42;20.26;101829.63;5038347;28;45980;-72
2022/05/13 06:44:19;;;;;;;;;2.33;2.00;;;;;31.33;20.43;101828.25;5055489;28;45439;-72
2022/05/13 06:46:45;;;;;;;;;3.00;1.00;;;;;31.52;20.90;101822.72;5055244;28;45745;-71
2022/05/13 06:49:12;;;;;;;;;3.33;2.33;;;;;31.53;20.56;101812.63;5055290;28;45871;-75
2022/05/13 06:51:40;;;;;;;;;1.00;1.00;;;;;31.53;20.56;101829.09;5055537;28;45383;-76
2022/05/13 06:54:07;;;;;;;;;4.00;2.00;;;;;31.56;19.85;101816.09;5052148;28;45471;-75
2022/05/13 06:56:36;;;;;;;;;2.00;2.00;;;;;31.64;20.33;101824.84;5055247;28;45344;-76
2022/05/13 06:59:02;;;;;;;;;5.00;1.67;;;;;31.66;20.09;101822.03;5054682;28;45470;-75
2022/05/13 07:01:28;;;;;;;;;1.00;1.00;;;;;31.90;20.10;101840.84;5055556;28;45447;-75
2022/05/13 07:03:53;;;;;;;;;3.00;2.00;;;;;31.86;20.02;101850.25;5055429;28;45487;-75
2022/05/13 07:06:19;;;;;;;;;2.33;1.00;;;;;31.59;20.27;101823.28;5055756;28;45410;-83
2022/05/13 07:08:45;;;;;;;;;3.00;1.67;;;;;31.74;19.55;101858.13;5038036;28;48247;-81
2022/05/13 07:11:11;;;;;;;;;3.00;2.00;;;;;32.03;19.80;101852.97;5033901;28;45677;-86
2022/05/13 07:13:36;;;;;;;;;1.33;1.00;;;;;31.94;19.29;101809.53;5038715;28;45538;-84
2022/05/13 07:16:01;;;;;;;;;1.67;1.00;;;;;31.94;19.60;101802.22;5027877;28;46257;-83
2022/05/13 07:18:28;;;;;;;;;3.00;2.00;;;;;32.19;19.38;101836.56;5042116;28;46175;-83
2022/05/13 07:20:53;;;;;;;;;3.00;2.00;;;;;31.91;19.48;101785.00;5042488;28;45434;-83
2022/05/13 07:23:19;;;;;;;;;1.00;1.00;;;;;32.00;19.44;101850.38;5043173;28;45467;-85
2022/05/13 07:25:45;;;;;;;;;1.00;1.00;;;;;32.00;19.65;101833.91;5023692;28;45368;-86
2022/05/13 07:28:11;;;;;;;;;1.00;1.00;;;;;31.89;19.35;101798.81;5043053;28;48375;-82
2022/05/13 07:30:37;;;;;;;;;2.33;1.67;;;;;32.22;19.37;101855.63;5040669;28;45431;-81
2022/05/13 07:33:03;;;;;;;;;1.00;1.00;;;;;32.25;19.18;101851.81;5050332;28;45423;-83
2022/05/13 07:35:28;;;;;;;;;1.00;1.00;;;;;31.70;18.89;101807.19;5032699;28;45251;-81
2022/05/13 07:37:53;;;;;;;;;0.00;0.00;;;;;31.65;19.09;101803.78;5032403;28;46899;-81
2022/05/13 07:43:04;;;;;;;;;1.00;0.00;;;;;31.78;18.57;101829.56;5040250;28;45500;-80
2022/05/13 07:45:30;;;;;;;;;1.00;1.00;;;;;31.94;18.71;101847.97;5030218;28;45478;-80
2022/05/13 07:47:56;;;;;;;;;0.00;0.00;;;;;31.57;18.18;101762.13;5035333;28;46386;-81
2022/05/13 07:50:22;;;;;;;;;0.33;0.33;;;;;31.56;18.58;101771.31;5031254;28;45384;-80
2022/05/13 07:52:50;;;;;;;;;3.00;2.00;;;;;31.52;18.68;101762.38;5037444;28;45443;-80
2022/05/13 07:55:15;;;;;;;;;1.00;1.00;;;;;32.12;18.59;101851.56;5054076;28;45553;-80
2022/05/13 07:57:43;;;;;;;;;0.00;0.00;;;;;31.73;18.18;101801.53;5052147;28;46446;-80
2022/05/13 08:00:27;;;;;;;;;1.00;1.00;;;;;31.75;17.92;101766.63;5022832;28;45506;-84
2022/05/13 08:03:01;;;;;;;;;0.00;0.00;;;;;32.40;17.56;101848.19;5035503;28;45538;-83
2022/05/13 08:05:30;;;;;;;;;1.00;1.00;;;;;32.33;17.85;101846.78;5033453;28;45818;-81
2022/05/13 08:08:01;;;;;;;;;1.00;0.67;;;;;32.29;17.94;101843.34;5049160;28;45440;-80
2022/05/13 08:10:26;;;;;;;;;4.00;1.00;;;;;32.06;17.54;101813.47;5041108;28;45664;-84
2022/05/13 08:12:52;;;;;;;;;1.00;1.00;;;;;32.31;18.05;101849.63;5031601;28;45463;-71
2022/05/13 08:15:17;;;;;;;;;1.33;1.33;;;;;32.24;18.06;101831.72;5050640;28;45736;-71
2022/05/13 08:17:42;;;;;;;;;2.00;0.00;;;;;31.75;17.52;101785.84;5044737;28;45424;-71
2022/05/13 08:20:08;;;;;;;;;1.00;1.00;;;;;31.97;17.70;101821.25;5038701;28;45497;-71
2022/05/13 08:22:34;;;;;;;;;1.00;1.00;;;;;32.17;17.41;101852.25;5051869;28;45477;-70
2022/05/13 08:24:59;;;;;;;;;1.00;1.00;;;;;32.08;17.51;101842.63;5037051;28;45512;-71
2022/05/13 08:27:25;;;;;;;;;1.00;1.00;;;;;32.19;17.58;101860.41;5043970;28;46281;-71
2022/05/13 08:29:50;;;;;;;;;2.33;1.00;;;;;32.30;17.91;101844.22;5044494;28;45420;-71
2022/05/13 08:32:15;;;;;;;;;1.00;1.00;;;;;32.26;17.73;101818.75;5027721;28;45455;-71
2022/05/13 08:34:41;;;;;;;;;1.00;1.00;;;;;32.25;17.57;101847.22;5042356;28;45379;-71
2022/05/13 08:37:06;;;;;;;;;0.33;0.33;;;;;32.31;17.68;101848.75;5032943;28;49161;-71
2022/05/13 08:39:31;;;;;;;;;1.33;1.00;;;;;32.26;17.96;101839.84;5044452;28;45436;-71
2022/05/13 08:42:06;;;;;;;;;1.33;1.33;;;;;32.38;17.35;101844.66;5021702;28;45467;-71
2022/05/13 08:44:32;;;;;;;;;3.33;1.67;;;;;32.48;17.56;101845.03;5050230;28;45466;-71
2022/05/13 08:47:33;;;;;;;;;1.00;1.00;;;;;32.58;17.62;101854.53;5043783;28;46264;-72
2022/05/13 08:50:13;;;;;;;;;2.67;2.33;;;;;32.62;17.20;101847.00;4982478;28;45373;-71
2022/05/13 08:55:36;;;;;;;;;2.00;1.00;;;;;33.00;17.08;101832.94;5034910;28;45380;-84
2022/05/13 08:58:05;;;;;;;;;3.33;3.00;;;;;33.17;16.90;101846.56;5045785;28;46346;-85
2022/05/13 09:00:35;;;;;;;;;3.00;2.00;;;;;33.20;17.09;101852.88;5031569;28;45475;-84
2022/05/13 09:03:09;;;;;;;;;2.00;2.00;;;;;33.15;16.78;101851.28;5044102;28;45698;-81
2022/05/13 09:05:43;;;;;;;;;1.00;1.00;;;;;33.12;16.92;101840.47;5019952;28;45341;-83
2022/05/13 09:08:09;;;;;;;;;3.00;2.00;;;;;33.19;16.86;101840.97;5040126;28;46491;-81
2022/05/13 09:10:45;;;;;;;;;1.00;1.00;;;;;33.18;17.46;101847.47;5035542;28;45494;-80
2022/05/13 09:13:24;;;;;;;;;3.00;1.67;;;;;33.08;17.08;101814.13;5023623;28;45702;-82
2022/05/13 09:15:55;;;;;;;;;1.33;1.33;;;;;33.19;17.37;101802.47;5033406;28;45665;-80
2022/05/13 09:18:34;;;;;;;;;1.00;1.00;;;;;33.39;17.13;101845.31;5032610;28;47895;-81
2022/05/13 09:21:10;;;;;;;;;1.00;1.00;;;;;33.14;16.82;101829.38;5053114;28;45455;-81
2022/05/13 09:23:35;;;;;;;;;1.00;1.00;;;;;33.13;16.66;101814.72;5051526;28;45354;-81
2022/05/13 09:26:04;;;;;;;;;3.00;2.00;;;;;33.32;16.84;101846.69;5052131;28;45359;-80
2022/05/13 09:28:33;;;;;;;;;7.33;6.33;;;;;33.07;16.81;101822.47;5047964;28;45435;-81
2022/05/13 09:31:21;;;;;;;;;12.67;11.33;;;;;33.21;16.86;101805.13;5038200;28;45527;-86
2022/05/13 09:33:48;;;;;;;;;14.67;11.33;;;;;33.12;17.15;101760.72;5051782;28;45363;-87
2022/05/13 09:36:21;;;;;;;;;12.00;9.00;;;;;33.85;16.93;101844.38;5030357;28;45544;-81
2022/05/13 09:38:50;;;;;;;;;4.00;4.00;;;;;33.57;16.81;101792.88;5036223;28;48419;-83
2022/05/13 09:41:25;;;;;;;;;2.00;2.00;;;;;33.39;16.92;101797.66;5052340;28;45395;-83
2022/05/13 09:43:54;;;;;;;;;3.33;3.33;;;;;33.65;16.37;101837.34;5054296;28;45566;-84
2022/05/13 09:46:32;;;;;;;;;2.33;2.00;;;;;33.88;16.54;101837.78;5051170;28;45610;-83
2022/05/13 09:49:01;;;;;;;;;2.00;2.00;;;;;33.68;16.98;101798.59;5037986;28;47301;-85
2022/05/13 09:51:53;;;;;;;;;4.00;4.00;;;;;34.08;16.78;101842.94;5037705;28;45833;-85
2022/05/13 09:54:36;;;;;;;;;3.00;3.00;;;;;34.26;16.16;101839.97;5053850;28;45304;-81
2022/05/13 09:57:20;;;;;;;;;5.00;3.00;;;;;33.79;16.26;101789.72;5051356;28;45390;-82
2022/05/13 09:59:53;;;;;;;;;3.00;3.00;;;;;33.76;16.90;101837.59;5054414;28;45608;-82
2022/05/13 10:02:21;;;;;;;;;6.67;5.00;;;;;33.93;16.92;101839.28;5051534;28;45497;-82
2022/05/13 10:04:55;;;;;;;;;2.00;2.00;;;;;33.96;16.98;101794.16;5056891;28;46329;-85
2022/05/13 10:07:24;;;;;;;;;3.67;3.67;;;;;33.98;16.66;101778.41;5043244;28;45497;-82
2022/05/13 10:15:45;;;;;;;;;2.00;2.00;;;;;33.73;16.48;101818.47;5042472;28;45471;-83
2022/05/13 10:18:29;;;;;;;;;2.33;1.67;;;;;33.92;16.56;101822.84;5041352;28;45320;-85
2022/05/13 10:21:12;;;;;;;;;4.00;3.00;;;;;33.71;16.62;101814.03;5036819;28;45765;-82
2022/05/13 10:23:47;;;;;;;;;3.00;3.00;;;;;33.77;17.10;101820.09;5039547;28;45448;-84
2022/05/13 10:26:19;;;;;;;;;4.00;3.00;;;;;33.65;16.95;101796.06;5061609;28;45468;-86
2022/05/13 10:29:06;;;;;;;;;3.00;3.00;;;;;34.00;16.71;101828.75;5042770;28;45437;-84
2022/05/13 10:31:38;;;;;;;;;1.67;1.67;;;;;33.78;16.80;101735.66;5030331;28;47529;-84
2022/05/13 10:34:36;;;;;;;;;0.67;0.67;;;;;34.42;16.86;101816.00;5050109;28;45410;-83
2022/05/13 10:37:15;;;;;;;;;3.67;2.00;;;;;33.95;16.49;101746.47;5037176;28;45632;-83
2022/05/13 10:39:50;;;;;;;;;2.00;2.00;;;;;34.10;16.43;101747.34;5034920;28;45756;-84
2022/05/13 10:43:01;;;;;;;;;3.00;2.00;;;;;34.05;16.58;101776.16;5026671;28;47140;-86
2022/05/13 10:45:30;;;;;;;;;2.00;2.00;;;;;34.01;16.91;101778.22;4961318;28;45632;-85
2022/05/13 10:48:23;;;;;;;;;2.33;2.33;;;;;34.37;16.76;101801.63;4971326;28;45477;-80
2022/05/13 10:51:04;;;;;;;;;7.33;1.67;;;;;34.19;16.79;101806.44;4954168;28;46460;-81
2022/05/13 10:53:50;;;;;;;;;4.67;2.00;;;;;34.22;16.39;101802.59;4963761;28;48046;-80
2022/05/13 10:56:21;;;;;;;;;3.33;3.00;;;;;34.49;16.17;101795.31;4966613;28;45739;-80
2022/05/13 10:58:49;;;;;;;;;3.00;2.00;;;;;34.48;16.19;101798.19;4964785;28;45666;-80
2022/05/13 11:01:21;;;;;;;;;4.67;4.67;;;;;34.60;16.39;101804.72;4967143;28;45394;-80
2022/05/13 11:04:18;;;;;;;;;1.33;1.33;;;;;34.36;16.17;101767.69;4962457;28;45871;-80
2022/05/13 11:06:51;;;;;;;;;2.33;2.33;;;;;34.11;16.04;101762.88;4972430;28;45436;-80
2022/05/13 11:09:56;;;;;;;;;2.67;2.67;;;;;34.12;16.16;101756.41;4966783;28;45704;-80
2022/05/13 11:12:35;;;;;;;;;3.67;3.67;;;;;34.61;16.22;101792.72;4967430;28;45461;-80
2022/05/13 11:15:35;;;;;;;;;2.00;2.00;;;;;34.60;15.71;101796.47;4960274;28;46700;-82
2022/05/13 11:18:35;;;;;;;;;1.67;1.67;;;;;34.67;15.83;101801.47;5053808;28;45498;-83
2022/05/13 11:21:10;;;;;;;;;0.67;0.67;;;;;34.83;15.54;101787.56;4950426;28;45608;-82
2022/05/13 11:23:43;;;;;;;;;4.00;2.67;;;;;34.88;15.18;101776.22;4947828;28;45406;-83
2022/05/13 11:26:21;;;;;;;;;3.00;3.00;;;;;35.05;15.25;101758.56;4932130;28;47745;-82
2022/05/13 11:29:07;;;;;;;;;3.33;2.33;;;;;35.14;15.55;101771.69;4944738;28;45437;-82
2022/05/13 11:31:36;;;;;;;;;1.67;1.67;;;;;35.19;14.88;101791.56;4949376;28;45523;-79
2022/05/13 11:34:30;;;;;;;;;2.67;2.00;;;;;35.19;15.61;101785.16;4941031;28;45771;-77
2022/05/13 11:37:05;;;;;;;;;2.33;2.00;;;;;34.86;15.29;101737.72;4937948;28;46305;-81
2022/05/13 11:40:05;;;;;;;;;6.00;5.00;;;;;34.98;15.57;101751.66;4944910;28;45484;-85
2022/05/13 11:46:03;;;;;;;;;1.67;1.33;;;;;34.88;14.81;101773.47;4944289;28;45482;-71
2022/05/13 11:48:33;;;;;;;;;3.00;2.00;;;;;34.77;14.98;101790.72;4918160;28;46078;-76
2022/05/13 11:51:04;;;;;;;;;3.00;1.67;;;;;34.91;14.87;101780.66;4935463;28;45431;-74
2022/05/13 11:53:41;;;;;;;;;0.67;0.67;;;;;35.10;14.82;101775.66;4947720;28;45588;-74
2022/05/13 11:56:32;;;;;;;;;0.67;0.67;;;;;35.17;14.99;101773.34;4941249;28;45536;-71
2022/05/13 11:59:01;;;;;;;;;2.67;2.67;;;;;35.32;14.97;101769.56;5045004;28;46574;-71
2022/05/13 12:01:36;;;;;;;;;2.00;2.00;;;;;35.30;14.81;101771.56;5049829;28;45434;-72
2022/05/13 12:04:13;;;;;;;;;2.33;2.33;;;;;35.33;14.97;101774.09;5039430;28;45322;-72